createdAt,value
2017-05-11T00:00:04.987Z,7.40
2017-05-11T00:02:34.237Z,7.30
2017-05-11T00:05:02.575Z,7.30
2017-05-11T00:07:30.899Z,7.30
2017-05-11T00:18:38.958Z,7.20
2017-05-11T00:21:07.326Z,7.20
2017-05-11T00:23:35.756Z,7.10
2017-05-11T00:26:04.507Z,7.10
2017-05-11T00:28:33.638Z,7.10
2017-05-11T00:31:02.192Z,7.00
2017-05-11T00:33:30.837Z,7.00
2017-05-11T00:35:59.448Z,7.00
2017-05-11T00:38:28.081Z,7.00
2017-05-11T00:40:56.736Z,7.00
2017-05-11T00:43:25.866Z,7.00
2017-05-11T00:45:54.493Z,7.00
2017-05-11T00:48:23.267Z,7.10
2017-05-11T00:50:51.946Z,7.10
2017-05-11T00:53:20.472Z,7.10
2017-05-11T00:55:50.062Z,7.10
2017-05-11T00:58:19.697Z,7.10
2017-05-11T01:00:48.982Z,7.10
2017-05-11T01:03:17.577Z,7.10
2017-05-11T01:05:47.613Z,7.10
2017-05-11T01:08:16.347Z,7.10
2017-05-11T01:10:46.104Z,7.10
2017-05-11T01:13:14.706Z,7.10
2017-05-11T01:15:43.240Z,7.10
2017-05-11T01:18:11.802Z,7.10
2017-05-11T01:20:40.538Z,7.10
2017-05-11T01:23:09.192Z,7.10
2017-05-11T01:25:37.893Z,7.10
2017-05-11T01:28:07.195Z,7.00
2017-05-11T01:30:35.898Z,7.00
2017-05-11T01:33:05.356Z,7.00
2017-05-11T01:35:33.937Z,7.00
2017-05-11T01:38:02.507Z,7.00
2017-05-11T01:40:31.223Z,7.00
2017-05-11T01:42:59.864Z,7.00
2017-05-11T01:45:28.633Z,6.90
2017-05-11T01:47:57.460Z,6.90
2017-05-11T01:50:26.042Z,6.90
2017-05-11T01:52:54.739Z,6.80
2017-05-11T01:55:23.398Z,6.80
2017-05-11T01:57:52.128Z,6.80
2017-05-11T02:00:20.826Z,6.80
2017-05-11T02:02:50.457Z,6.80
2017-05-11T02:05:19.862Z,6.70
2017-05-11T02:07:48.509Z,6.70
2017-05-11T02:10:17.966Z,6.70
2017-05-11T02:12:46.501Z,6.60
2017-05-11T02:15:15.087Z,6.60
2017-05-11T02:17:44.419Z,6.60
2017-05-11T02:20:13.000Z,6.60
2017-05-11T02:22:41.645Z,6.60
2017-05-11T02:25:10.192Z,6.50
2017-05-11T02:27:38.779Z,6.50
2017-05-11T02:30:07.303Z,6.50
2017-05-11T02:32:36.576Z,6.40
2017-05-11T02:35:05.165Z,6.40
2017-05-11T02:37:34.045Z,6.30
2017-05-11T02:40:02.672Z,6.30
2017-05-11T02:42:31.362Z,6.30
2017-05-11T02:45:00.633Z,6.20
2017-05-11T02:47:29.374Z,6.20
2017-05-11T02:49:57.933Z,6.20
2017-05-11T02:52:26.601Z,6.20
2017-05-11T02:54:55.260Z,6.10
2017-05-11T02:57:23.768Z,6.10
2017-05-11T02:59:52.399Z,6.10
2017-05-11T03:02:21.006Z,6.10
2017-05-11T03:04:49.555Z,6.10
2017-05-11T03:07:18.113Z,6.10
2017-05-11T03:09:47.062Z,6.10
2017-05-11T03:12:15.687Z,6.00
2017-05-11T03:14:44.942Z,6.00
2017-05-11T03:17:13.885Z,6.00
2017-05-11T03:19:42.520Z,6.00
2017-05-11T03:22:11.125Z,6.00
2017-05-11T03:24:47.247Z,5.90
2017-05-11T03:27:15.917Z,5.90
2017-05-11T03:29:44.475Z,5.90
2017-05-11T03:32:13.918Z,5.90
2017-05-11T03:34:42.405Z,5.90
2017-05-11T03:37:11.063Z,5.90
2017-05-11T03:39:39.743Z,5.90
2017-05-11T03:42:08.334Z,5.80
2017-05-11T03:44:36.839Z,5.80
2017-05-11T03:47:05.714Z,5.80
2017-05-11T03:49:34.301Z,5.80
2017-05-11T03:52:03.761Z,5.80
2017-05-11T03:54:32.694Z,5.80
2017-05-11T03:57:01.393Z,5.80
2017-05-11T03:59:30.177Z,5.80
2017-05-11T04:01:59.018Z,5.80
2017-05-11T04:04:27.604Z,5.90
2017-05-11T04:06:56.134Z,5.90
2017-05-11T04:09:25.039Z,5.90
2017-05-11T04:11:53.611Z,5.90
2017-05-11T04:14:22.977Z,5.90
2017-05-11T04:16:51.702Z,6.00
2017-05-11T04:19:20.256Z,6.10
2017-05-11T04:21:48.935Z,6.10
2017-05-11T04:24:17.642Z,6.10
2017-05-11T04:26:46.271Z,6.10
2017-05-11T04:29:14.766Z,6.10
2017-05-11T04:31:43.468Z,6.10
2017-05-11T04:34:12.087Z,6.10
2017-05-11T04:36:40.776Z,6.10
2017-05-11T04:39:09.410Z,6.30
2017-05-11T04:41:38.157Z,6.50
2017-05-11T04:44:09.092Z,6.60
2017-05-11T04:46:37.741Z,6.80
2017-05-11T04:49:06.356Z,6.90
2017-05-11T04:51:35.322Z,6.80
2017-05-11T04:54:04.012Z,6.80
2017-05-11T04:56:32.677Z,7.00
2017-05-11T04:59:01.323Z,7.10
2017-05-11T05:01:30.781Z,7.10
2017-05-11T05:03:59.379Z,7.10
2017-05-11T05:06:28.142Z,7.10
2017-05-11T05:08:57.519Z,7.20
2017-05-11T05:11:27.144Z,7.30
2017-05-11T05:13:57.588Z,7.40
2017-05-11T05:16:27.089Z,7.50
2017-05-11T05:18:55.848Z,7.70
2017-05-11T05:21:25.500Z,7.70
2017-05-11T05:23:54.223Z,7.70
2017-05-11T05:26:22.781Z,7.80
2017-05-11T05:28:52.284Z,7.80
2017-05-11T05:31:20.836Z,7.80
2017-05-11T05:33:49.536Z,7.90
2017-05-11T05:36:18.963Z,7.90
2017-05-11T05:38:48.566Z,8.00
2017-05-11T05:41:17.229Z,8.10
2017-05-11T05:43:46.123Z,8.20
2017-05-11T05:46:14.790Z,8.30
2017-05-11T05:48:43.502Z,8.40
2017-05-11T05:51:13.302Z,8.40
2017-05-11T05:53:42.135Z,8.40
2017-05-11T05:56:10.993Z,8.40
2017-05-11T05:58:41.781Z,8.50
2017-05-11T06:01:14.110Z,8.60
2017-05-11T06:03:43.873Z,8.70
2017-05-11T06:06:13.879Z,8.70
2017-05-11T06:08:44.569Z,8.80
2017-05-11T06:11:14.737Z,8.90
2017-05-11T06:13:44.396Z,9.00
2017-05-11T06:16:15.202Z,9.10
2017-05-11T06:18:45.114Z,9.20
2017-05-11T06:21:20.686Z,9.30
2017-05-11T06:23:49.958Z,9.40
2017-05-11T06:26:20.923Z,9.50
2017-05-11T06:28:55.346Z,9.60
2017-05-11T06:31:29.025Z,9.60
2017-05-11T06:33:58.414Z,9.70
2017-05-11T06:36:28.174Z,9.80
2017-05-11T06:38:57.024Z,9.80
2017-05-11T06:41:27.200Z,9.90
2017-05-11T06:43:57.844Z,9.90
2017-05-11T06:46:28.473Z,9.90
2017-05-11T06:48:58.254Z,9.80
2017-05-11T06:51:27.100Z,9.90
2017-05-11T06:53:56.542Z,10.00
2017-05-11T06:56:25.465Z,10.10
2017-05-11T06:58:55.899Z,10.20
2017-05-11T07:01:25.625Z,10.20
2017-05-11T07:03:54.707Z,10.30
2017-05-11T07:06:23.357Z,10.30
2017-05-11T07:08:52.163Z,10.30
2017-05-11T07:11:20.932Z,10.40
2017-05-11T07:13:51.239Z,10.40
2017-05-11T07:16:20.530Z,10.40
2017-05-11T07:18:49.571Z,10.50
2017-05-11T07:21:18.534Z,10.50
2017-05-11T07:23:47.924Z,10.50
2017-05-11T07:26:19.240Z,10.70
2017-05-11T07:28:48.358Z,10.70
2017-05-11T07:31:18.643Z,10.80
2017-05-11T07:33:48.104Z,10.80
2017-05-11T07:36:19.679Z,10.80
2017-05-11T07:38:49.252Z,10.90
2017-05-11T07:41:20.906Z,11.10
2017-05-11T07:43:49.711Z,11.10
2017-05-11T07:46:19.670Z,11.00
2017-05-11T07:48:48.947Z,11.20
2017-05-11T07:51:18.580Z,11.30
2017-05-11T07:53:48.271Z,11.50
2017-05-11T07:56:16.912Z,11.50
2017-05-11T07:58:46.827Z,11.50
2017-05-11T08:01:17.063Z,11.60
2017-05-11T08:03:45.946Z,11.60
2017-05-11T08:06:15.275Z,11.70
2017-05-11T08:08:44.954Z,11.70
2017-05-11T08:11:14.591Z,11.80
2017-05-11T08:13:44.452Z,11.90
2017-05-11T08:16:15.027Z,12.10
2017-05-11T08:18:44.144Z,12.20
2017-05-11T08:21:12.803Z,12.30
2017-05-11T08:23:41.687Z,12.20
2017-05-11T08:26:12.455Z,12.40
2017-05-11T08:28:41.771Z,12.40
2017-05-11T08:31:12.612Z,12.50
2017-05-11T08:33:41.370Z,12.50
2017-05-11T08:36:12.607Z,12.60
2017-05-11T08:38:42.906Z,12.60
2017-05-11T08:41:12.466Z,12.80
2017-05-11T08:43:41.189Z,12.80
2017-05-11T08:46:10.695Z,12.90
2017-05-11T08:48:40.317Z,12.90
2017-05-11T08:51:09.816Z,13.00
2017-05-11T08:53:38.791Z,13.00
2017-05-11T08:56:07.976Z,13.00
2017-05-11T08:58:36.930Z,13.10
2017-05-11T09:01:05.906Z,13.20
2017-05-11T09:03:35.690Z,13.20
2017-05-11T09:06:05.476Z,13.20
2017-05-11T09:08:36.330Z,13.30
2017-05-11T09:11:06.642Z,13.50
2017-05-11T09:13:35.750Z,13.50
2017-05-11T09:16:06.280Z,13.60
2017-05-11T09:18:36.778Z,13.70
2017-05-11T09:21:05.457Z,13.80
2017-05-11T09:23:34.730Z,13.80
2017-05-11T09:26:04.685Z,13.80
2017-05-11T09:28:36.504Z,13.90
2017-05-11T09:31:08.171Z,13.70
2017-05-11T09:33:37.091Z,13.60
2017-05-11T09:36:09.045Z,13.70
2017-05-11T09:38:39.917Z,13.70
2017-05-11T09:41:09.266Z,13.70
2017-05-11T09:43:38.715Z,13.70
2017-05-11T09:46:08.926Z,13.70
2017-05-11T09:48:39.345Z,13.80
2017-05-11T09:51:08.183Z,14.00
2017-05-11T09:53:39.342Z,14.10
2017-05-11T09:56:10.021Z,14.10
2017-05-11T09:58:40.202Z,14.10
2017-05-11T10:01:10.556Z,14.20
2017-05-11T10:03:39.622Z,14.30
2017-05-11T10:06:11.562Z,14.40
2017-05-11T10:08:40.488Z,14.40
2017-05-11T10:11:09.265Z,14.40
2017-05-11T10:13:37.657Z,14.50
2017-05-11T10:16:06.789Z,14.50
2017-05-11T10:18:35.124Z,14.60
2017-05-11T10:21:03.452Z,14.60
2017-05-11T10:23:31.821Z,14.70
2017-05-11T10:26:00.155Z,14.70
2017-05-11T10:28:28.494Z,14.80
2017-05-11T10:30:57.087Z,14.90
2017-05-11T10:33:25.413Z,15.00
2017-05-11T10:35:54.504Z,15.00
2017-05-11T10:38:23.611Z,15.00
2017-05-11T10:40:51.939Z,15.10
2017-05-11T10:43:20.282Z,15.20
2017-05-11T10:45:48.944Z,15.30
2017-05-11T10:48:18.015Z,15.50
2017-05-11T10:50:46.348Z,15.50
2017-05-11T10:53:14.749Z,15.60
2017-05-11T10:55:43.078Z,15.60
2017-05-11T10:58:12.149Z,15.60
2017-05-11T11:00:40.526Z,15.70
2017-05-11T11:03:08.878Z,15.80
2017-05-11T11:05:37.210Z,15.90
2017-05-11T11:08:05.701Z,15.90
2017-05-11T11:10:34.028Z,16.00
2017-05-11T11:13:02.356Z,16.00
2017-05-11T11:15:30.845Z,16.00
2017-05-11T11:17:59.179Z,16.00
2017-05-11T11:20:28.784Z,16.00
2017-05-11T11:22:57.185Z,16.10
2017-05-11T11:25:26.251Z,16.10
2017-05-11T11:27:54.575Z,16.10
2017-05-11T11:30:22.956Z,16.10
2017-05-11T11:32:51.287Z,16.20
2017-05-11T11:35:19.620Z,16.30
2017-05-11T11:37:47.998Z,16.40
2017-05-11T11:40:16.359Z,16.40
2017-05-11T11:42:44.680Z,16.50
2017-05-11T11:45:13.305Z,16.50
2017-05-11T11:47:42.364Z,16.60
2017-05-11T11:50:10.699Z,16.60
2017-05-11T11:52:39.151Z,16.70
2017-05-11T11:55:08.226Z,16.80
2017-05-11T11:57:36.554Z,16.80
2017-05-11T12:00:04.972Z,16.80
2017-05-11T12:02:33.325Z,17.00
2017-05-11T12:05:01.650Z,17.00
2017-05-11T12:07:31.076Z,16.90
2017-05-11T12:09:59.396Z,17.00
2017-05-11T12:12:27.735Z,17.10
2017-05-11T12:14:56.247Z,17.10
2017-05-11T12:17:24.584Z,17.10
2017-05-11T12:19:53.674Z,17.20
2017-05-11T12:22:22.773Z,17.20
2017-05-11T12:24:51.842Z,17.30
2017-05-11T12:27:20.160Z,17.40
2017-05-11T12:29:48.725Z,17.40
2017-05-11T12:32:17.810Z,17.40
2017-05-11T12:34:46.182Z,17.50
2017-05-11T12:37:14.641Z,17.50
2017-05-11T12:39:42.957Z,17.50
2017-05-11T12:42:13.039Z,17.50
2017-05-11T12:44:41.684Z,17.50
2017-05-11T12:47:10.005Z,17.50
2017-05-11T12:49:38.333Z,17.50
2017-05-11T12:52:06.813Z,17.60
2017-05-11T12:54:35.145Z,17.60
2017-05-11T12:57:03.476Z,17.70
2017-05-11T12:59:32.041Z,17.80
2017-05-11T13:02:00.387Z,17.80
2017-05-11T13:04:28.712Z,17.80
2017-05-11T13:06:57.080Z,17.80
2017-05-11T13:09:25.401Z,17.80
2017-05-11T13:11:53.738Z,17.80
2017-05-11T13:14:22.198Z,17.90
2017-05-11T13:16:51.274Z,18.00
2017-05-11T13:19:19.603Z,18.00
2017-05-11T13:21:48.280Z,18.00
2017-05-11T13:24:16.605Z,18.10
2017-05-11T13:26:44.922Z,18.10
2017-05-11T13:29:13.311Z,18.10
2017-05-11T13:31:41.656Z,18.10
2017-05-11T13:34:09.972Z,18.10
2017-05-11T13:36:38.373Z,18.10
2017-05-11T13:39:06.699Z,18.10
2017-05-11T13:41:35.767Z,18.10
2017-05-11T13:44:04.135Z,18.10
2017-05-11T13:46:33.106Z,18.10
2017-05-11T13:49:01.431Z,18.10
2017-05-11T13:51:30.542Z,18.20
2017-05-11T13:53:59.604Z,18.20
2017-05-11T13:56:27.926Z,18.30
2017-05-11T13:58:56.497Z,18.30
2017-05-11T14:01:25.565Z,18.20
2017-05-11T14:03:53.885Z,18.20
2017-05-11T14:06:22.298Z,18.20
2017-05-11T14:08:50.639Z,18.20
2017-05-11T14:11:18.976Z,18.30
2017-05-11T14:13:47.888Z,18.40
2017-05-11T14:16:16.955Z,18.40
2017-05-11T14:18:45.284Z,18.40
2017-05-11T14:21:13.741Z,18.40
2017-05-11T14:23:42.811Z,18.50
2017-05-11T14:26:11.132Z,18.60
2017-05-11T14:28:39.590Z,18.60
2017-05-11T14:31:08.653Z,18.50
2017-05-11T14:33:36.972Z,18.50
2017-05-11T14:36:05.369Z,18.60
2017-05-11T14:38:33.692Z,18.60
2017-05-11T14:41:02.028Z,18.60
2017-05-11T14:43:30.691Z,18.70
2017-05-11T14:45:59.016Z,18.70
2017-05-11T14:48:27.337Z,18.70
2017-05-11T14:50:56.868Z,18.70
2017-05-11T14:53:25.188Z,18.70
2017-05-11T14:55:54.411Z,18.70
2017-05-11T14:58:22.779Z,18.70
2017-05-11T15:00:51.102Z,18.70
2017-05-11T15:03:19.437Z,18.70
2017-05-11T15:05:47.806Z,18.70
2017-05-11T15:08:16.140Z,18.70
2017-05-11T15:10:44.473Z,18.70
2017-05-11T15:13:13.668Z,18.70
2017-05-11T15:15:41.991Z,18.70
2017-05-11T15:18:10.323Z,18.80
2017-05-11T15:20:38.705Z,18.80
2017-05-11T15:23:07.776Z,18.80
2017-05-11T15:25:36.096Z,18.70
2017-05-11T15:28:04.561Z,18.70
2017-05-11T15:30:33.627Z,18.70
2017-05-11T15:33:01.960Z,18.70
2017-05-11T15:35:30.446Z,18.70
2017-05-11T15:37:58.767Z,18.80
2017-05-11T15:40:27.101Z,18.80
2017-05-11T15:42:55.566Z,18.70
2017-05-11T15:45:23.893Z,18.80
2017-05-11T15:47:52.215Z,18.80
2017-05-11T15:50:20.777Z,18.90
2017-05-11T15:52:49.847Z,19.00
2017-05-11T15:55:18.181Z,19.40
2017-05-11T15:57:46.576Z,19.60
2017-05-11T16:00:14.921Z,19.80
2017-05-11T16:02:43.988Z,19.90
2017-05-11T16:05:12.616Z,19.90
2017-05-11T16:07:40.962Z,19.90
2017-05-11T16:10:10.043Z,19.90
2017-05-11T16:12:38.595Z,19.90
2017-05-11T16:15:06.925Z,19.90
2017-05-11T16:17:35.985Z,20.00
2017-05-11T16:20:04.464Z,20.00
2017-05-11T16:22:32.808Z,19.90
2017-05-11T16:25:01.128Z,19.90
2017-05-11T16:27:29.507Z,20.00
2017-05-11T16:29:57.842Z,20.20
2017-05-11T16:32:27.392Z,20.30
2017-05-11T16:34:55.844Z,20.20
2017-05-11T16:37:24.239Z,20.10
2017-05-11T16:39:52.564Z,19.80
2017-05-11T16:42:20.957Z,19.50
2017-05-11T16:44:49.297Z,19.40
2017-05-11T16:47:17.657Z,19.30
2017-05-11T16:49:46.032Z,19.20
2017-05-11T16:52:14.361Z,19.10
2017-05-11T16:54:42.709Z,19.10
2017-05-11T16:57:11.986Z,19.00
2017-05-11T16:59:42.273Z,19.10
2017-05-11T17:02:10.653Z,19.00
2017-05-11T17:04:39.056Z,19.10
2017-05-11T17:07:07.404Z,19.30
2017-05-11T17:09:35.771Z,19.50
2017-05-11T17:12:04.321Z,19.70
2017-05-11T17:14:32.657Z,19.70
2017-05-11T17:17:00.992Z,19.60
2017-05-11T17:19:29.420Z,19.50
2017-05-11T17:21:57.778Z,19.40
2017-05-11T17:24:26.177Z,19.30
2017-05-11T17:26:54.698Z,19.10
2017-05-11T17:29:23.803Z,18.90
2017-05-11T17:31:52.948Z,18.60
2017-05-11T17:34:21.441Z,18.50
2017-05-11T17:36:49.954Z,18.40
2017-05-11T17:39:18.352Z,18.30
2017-05-11T17:41:47.418Z,18.10
2017-05-11T17:44:15.800Z,18.10
2017-05-11T17:46:44.142Z,18.00
2017-05-11T17:49:12.765Z,17.90
2017-05-11T17:51:41.844Z,17.60
2017-05-11T17:54:10.349Z,17.50
2017-05-11T17:56:40.875Z,17.30
2017-05-11T17:59:09.977Z,17.10
2017-05-11T18:01:39.139Z,17.00
2017-05-11T18:04:10.516Z,16.80
2017-05-11T18:06:38.915Z,16.70
2017-05-11T18:09:07.277Z,16.50
2017-05-11T18:11:38.607Z,16.30
2017-05-11T18:14:07.135Z,16.00
2017-05-11T18:16:35.506Z,16.00
2017-05-11T18:19:03.879Z,15.80
2017-05-11T18:21:32.212Z,15.70
2017-05-11T18:24:00.718Z,15.60
2017-05-11T18:26:29.812Z,15.50
2017-05-11T18:29:00.349Z,15.40
2017-05-11T18:31:29.599Z,15.40
2017-05-11T18:33:58.023Z,15.30
2017-05-11T18:36:28.421Z,15.20
2017-05-11T18:38:57.184Z,15.00
2017-05-11T18:41:26.145Z,15.00
2017-05-11T18:43:54.603Z,14.80
2017-05-11T18:46:23.265Z,14.70
2017-05-11T18:48:51.614Z,14.70
2017-05-11T18:51:19.952Z,14.70
2017-05-11T18:53:48.337Z,14.60
2017-05-11T18:56:16.701Z,14.50
2017-05-11T18:58:45.807Z,14.30
2017-05-11T19:01:14.608Z,14.20
2017-05-11T19:03:43.005Z,14.10
2017-05-11T19:06:11.456Z,14.10
2017-05-11T19:08:40.830Z,13.90
2017-05-11T19:11:09.166Z,13.80
2017-05-11T19:13:37.616Z,13.80
2017-05-11T19:16:06.114Z,13.60
2017-05-11T19:18:34.450Z,13.60
2017-05-11T19:21:02.787Z,13.50
2017-05-11T19:23:31.333Z,13.50
2017-05-11T19:25:59.707Z,13.50
2017-05-11T19:28:28.772Z,13.40
2017-05-11T19:30:57.233Z,13.40
2017-05-11T19:33:25.567Z,13.30
2017-05-11T19:35:53.896Z,13.30
2017-05-11T19:38:22.420Z,13.20
2017-05-11T19:40:50.756Z,13.20
2017-05-11T19:43:19.138Z,13.10
2017-05-11T19:45:47.852Z,13.10
2017-05-11T19:48:16.929Z,13.10
2017-05-11T19:50:45.275Z,13.10
2017-05-11T19:53:13.749Z,13.20
2017-05-11T19:55:42.113Z,13.30
2017-05-11T19:58:10.464Z,13.40
2017-05-11T20:00:38.919Z,13.30
2017-05-11T20:03:07.248Z,13.30
2017-05-11T20:05:35.591Z,13.30
2017-05-11T20:08:04.795Z,13.30
2017-05-11T20:10:33.120Z,13.40
2017-05-11T20:13:01.461Z,13.50
2017-05-11T20:15:29.925Z,13.40
2017-05-11T20:17:58.980Z,13.40
2017-05-11T20:20:27.307Z,13.60
2017-05-11T20:22:55.839Z,13.50
2017-05-11T20:25:24.379Z,13.50
2017-05-11T20:27:52.706Z,13.40
2017-05-11T20:30:21.649Z,13.40
2017-05-11T20:32:54.513Z,13.40
2017-05-11T20:35:23.772Z,13.30
2017-05-11T20:37:52.115Z,13.30
2017-05-11T20:40:20.476Z,13.40
2017-05-11T20:42:49.772Z,13.30
2017-05-11T20:45:18.837Z,13.20
2017-05-11T20:47:47.162Z,13.30
2017-05-11T20:50:15.901Z,13.30
2017-05-11T20:52:44.257Z,13.30
2017-05-11T20:55:12.596Z,13.30
2017-05-11T20:57:41.070Z,13.30
2017-05-11T21:00:09.401Z,13.40
2017-05-11T21:02:37.744Z,13.50
2017-05-11T21:05:06.121Z,13.50
2017-05-11T21:07:34.495Z,13.60
2017-05-11T21:10:02.834Z,13.60
2017-05-11T21:12:31.292Z,13.70
2017-05-11T21:14:59.889Z,13.70
2017-05-11T21:17:28.292Z,13.70
2017-05-11T21:19:57.693Z,13.70
2017-05-11T21:22:26.179Z,13.80
2017-05-11T21:24:55.495Z,13.80
2017-05-11T21:27:23.993Z,13.70
2017-05-11T21:29:52.312Z,13.70
2017-05-11T21:32:20.635Z,13.70
2017-05-11T21:34:49.104Z,13.60
2017-05-11T21:37:17.432Z,13.60
2017-05-11T21:39:45.770Z,13.60
2017-05-11T21:42:14.245Z,13.50
2017-05-11T21:44:42.600Z,13.50
2017-05-11T21:47:10.947Z,13.40
2017-05-11T21:49:39.423Z,13.40
2017-05-11T21:52:07.776Z,13.30
2017-05-11T21:54:36.149Z,13.30
2017-05-11T21:57:04.620Z,13.30
2017-05-11T21:59:32.951Z,13.30
2017-05-11T22:02:01.331Z,13.20
2017-05-11T22:04:29.700Z,13.20
2017-05-11T22:06:58.033Z,13.30
2017-05-11T22:09:26.383Z,13.20
2017-05-11T22:11:54.852Z,13.10
2017-05-11T22:14:23.203Z,13.10
2017-05-11T22:16:51.566Z,13.00
2017-05-11T22:19:19.984Z,13.00
2017-05-11T22:21:48.525Z,12.90
2017-05-11T22:24:16.923Z,13.00
2017-05-11T22:26:45.605Z,12.90
2017-05-11T22:29:13.953Z,13.00
2017-05-11T22:31:42.287Z,12.90
2017-05-11T22:34:10.823Z,12.90
2017-05-11T22:36:39.152Z,12.90
2017-05-11T22:39:08.088Z,12.90
2017-05-11T22:41:36.545Z,12.90
2017-05-11T22:44:04.876Z,12.90
2017-05-11T22:46:33.217Z,12.90
2017-05-11T22:49:01.663Z,12.80
2017-05-11T22:51:30.009Z,12.80
2017-05-11T22:53:58.523Z,12.70
2017-05-11T22:56:27.694Z,12.70
2017-05-11T22:58:56.025Z,12.70
2017-05-11T23:01:24.359Z,12.70
2017-05-11T23:03:53.096Z,12.70
2017-05-11T23:06:21.456Z,12.70
2017-05-11T23:08:50.094Z,12.80
2017-05-11T23:11:18.612Z,12.80
2017-05-11T23:13:47.693Z,12.90
2017-05-11T23:16:16.043Z,12.90
2017-05-11T23:18:44.597Z,13.00
2017-05-11T23:21:12.921Z,13.00
2017-05-11T23:23:41.238Z,13.00
2017-05-11T23:26:09.603Z,13.00
2017-05-11T23:28:38.703Z,13.00
2017-05-11T23:31:07.035Z,13.10
2017-05-11T23:33:35.432Z,13.10
2017-05-11T23:36:06.431Z,13.10
2017-05-11T23:38:34.779Z,13.20
2017-05-11T23:41:03.157Z,13.20
2017-05-11T23:43:31.512Z,13.20
2017-05-11T23:46:00.917Z,13.20
2017-05-11T23:48:29.993Z,13.10
2017-05-11T23:50:58.527Z,13.20
2017-05-11T23:53:27.123Z,13.30
2017-05-11T23:55:55.469Z,13.30
2017-05-11T23:58:23.809Z,13.40
